Time;durP1;ratioP1;P1;durP2;ratioP2;P2;SDS_P1;SDS_P2;PMS_P1;PMS_P2;Temp;Humidity;BMP_temperature;BMP_pressure;BME280_temperature;BME280_humidity;BME280_pressure;Samples;Min_cycle;Max_cycle;Signal;HPM_P1;HPM_P2
2022/03/12 00:01:50;;;;;;;12.40;4.90;;;;;;;-0.07;32.96;101434.50;4467582;32;34350;-80
2022/03/12 00:04:19;;;;;;;12.57;5.90;;;;;;;-0.03;33.04;101427.97;4467502;32;34296;-80
2022/03/12 00:06:49;;;;;;;16.27;6.60;;;;;;;0.04;32.78;101428.41;4455751;32;32325;-80
2022/03/12 00:09:19;;;;;;;16.70;7.70;;;;;;;-0.21;33.46;101433.66;4444244;32;32535;-80
2022/03/12 00:11:51;;;;;;;18.70;8.90;;;;;;;-0.07;33.45;101433.66;4457086;32;33455;-81
2022/03/12 00:14:22;;;;;;;14.40;6.93;;;;;;;-0.33;33.99;101427.19;4469231;32;34293;-79
2022/03/12 00:16:55;;;;;;;18.30;8.80;;;;;;;-0.02;33.37;101421.59;4469565;32;33856;-81
2022/03/12 00:19:26;;;;;;;17.50;8.37;;;;;;;-0.20;34.16;101427.28;4457284;32;33501;-81
2022/03/12 00:21:55;;;;;;;18.17;9.30;;;;;;;-0.06;34.06;101420.06;4469582;32;33473;-81
2022/03/12 00:24:27;;;;;;;22.33;9.27;;;;;;;-0.26;34.50;101419.59;4469611;32;35167;-81
2022/03/12 00:27:00;;;;;;;19.27;9.90;;;;;;;-0.07;34.44;101420.16;4470930;32;34608;-79
2022/03/12 00:29:27;;;;;;;17.90;9.73;;;;;;;0.01;34.37;101428.59;4457137;32;32127;-80
2022/03/12 00:32:01;;;;;;;17.57;8.13;;;;;;;-0.38;34.85;101422.09;4457132;32;32148;-80
2022/03/12 00:34:31;;;;;;;18.37;8.57;;;;;;;-0.27;34.17;101428.66;4456829;32;33931;-79
2022/03/12 00:37:00;;;;;;;14.33;7.27;;;;;;;-0.25;33.78;101419.50;4469719;32;32388;-80
2022/03/12 00:39:28;;;;;;;14.87;7.15;;;;;;;-0.57;34.43;101423.34;4456842;32;33972;-80
2022/03/12 00:41:58;;;;;;;13.53;6.50;;;;;;;-0.31;34.34;101421.72;4469535;32;33879;-80
2022/03/12 00:44:33;;;;;;;14.53;5.83;;;;;;;-0.23;34.69;101416.69;4443988;32;32690;-80
2022/03/12 00:47:03;;;;;;;13.70;5.50;;;;;;;-0.14;34.75;101416.13;4469540;32;33934;-79
2022/03/12 00:49:36;;;;;;;13.30;4.77;;;;;;;-0.10;33.84;101426.63;4469738;32;33329;-80
2022/03/12 00:52:09;;;;;;;11.53;4.73;;;;;;;-0.37;33.05;101418.44;4469625;32;33716;-79
2022/03/12 00:54:40;;;;;;;12.93;6.00;;;;;;;-0.44;33.10;101417.09;4470733;32;34510;-79
2022/03/12 00:57:13;;;;;;;12.30;5.13;;;;;;;-0.46;33.60;101421.72;4456507;32;33389;-80
2022/03/12 00:59:46;;;;;;;11.00;4.73;;;;;;;-0.37;33.79;101428.34;4469219;32;34033;-79
2022/03/12 01:02:20;;;;;;;13.23;4.85;;;;;;;-0.52;34.58;101432.88;4457049;32;32007;-80
2022/03/12 01:04:54;;;;;;;10.90;4.93;;;;;;;-0.39;34.23;101408.72;4470509;32;34231;-79
2022/03/12 01:07:27;;;;;;;9.83;5.47;;;;;;;-0.37;34.47;101413.03;4456784;32;32318;-82
2022/03/12 01:09:59;;;;;;;;;;;;;;;-0.44;34.58;101417.09;4457465;32;31924;-80
2022/03/12 01:12:32;;;;;;;10.07;4.93;;;;;;;-0.67;35.42;101425.75;4469604;32;34279;-80
2022/03/12 01:14:59;;;;;;;11.57;5.10;;;;;;;-0.51;34.79;101418.44;4469331;32;35180;-80
2022/03/12 01:17:31;;;;;;;11.70;4.60;;;;;;;-0.56;35.03;101411.59;4456657;32;32576;-79
2022/03/12 01:20:00;;;;;;;10.50;4.53;;;;;;;-0.49;34.68;101412.94;4469693;32;34120;-80
2022/03/12 01:22:36;;;;;;;12.17;4.43;;;;;;;-0.44;34.44;101422.47;4469532;32;33596;-80
2022/03/12 01:25:05;;;;;;;10.20;4.87;;;;;;;-0.49;34.35;101416.50;4469338;32;34264;-79
2022/03/12 01:27:34;;;;;;;8.97;4.80;;;;;;;-0.67;34.80;101420.37;4456669;32;34076;-79
2022/03/12 01:30:03;;;;;;;10.05;5.15;;;;;;;-0.69;34.99;101411.50;4456683;32;31654;-80
2022/03/12 01:32:31;;;;;;;12.70;4.27;;;;;;;-0.46;34.54;101419.00;4456705;32;32286;-80
2022/03/12 01:35:00;;;;;;;10.13;5.03;;;;;;;-0.42;34.69;101409.75;4456787;32;34429;-80
2022/03/12 01:37:29;;;;;;;13.27;4.53;;;;;;;-0.61;35.02;101422.66;4456426;32;33400;-78
2022/03/12 01:39:57;;;;;;;13.67;5.43;;;;;;;-0.81;35.27;101429.31;4469454;32;32978;-80
2022/03/12 01:42:27;;;;;;;10.57;4.70;;;;;;;-0.65;35.06;101436.47;4469460;32;34621;-80
2022/03/12 01:44:57;;;;;;;13.37;5.20;;;;;;;-0.74;34.38;101429.81;4456330;32;34619;-79
2022/03/12 01:47:28;;;;;;;15.98;6.28;;;;;;;-0.88;33.89;101435.16;4469259;32;34135;-80
2022/03/12 01:49:56;;;;;;;16.75;7.85;;;;;;;-0.68;33.66;101433.00;4469400;32;33403;-80
2022/03/12 01:52:27;;;;;;;19.53;8.87;;;;;;;-0.75;34.33;101433.47;4469280;32;34511;-80
2022/03/12 01:54:56;;;;;;;28.80;15.37;;;;;;;-0.77;35.02;101438.06;4470348;32;34192;-80
2022/03/12 01:57:26;;;;;;;49.33;24.20;;;;;;;-0.60;35.30;101443.25;4456359;32;32502;-80
2022/03/12 01:59:54;;;;;;;34.20;18.60;;;;;;;-0.54;35.23;101439.31;4469033;32;32994;-80
2022/03/12 02:02:27;;;;;;;22.37;10.63;;;;;;;-0.76;36.13;101442.50;4468833;32;33490;-80
2022/03/12 02:05:00;;;;;;;27.10;13.03;;;;;;;-0.70;35.96;101439.44;4468775;32;34857;-80
2022/03/12 02:07:30;;;;;;;18.57;8.87;;;;;;;-0.92;36.38;101436.31;4455996;32;32226;-80
2022/03/12 02:09:59;;;;;;;13.77;7.00;;;;;;;-0.69;35.88;101439.34;4456312;32;33202;-79
2022/03/12 02:12:31;;;;;;;15.47;7.10;;;;;;;-0.96;36.54;101430.22;4470313;32;33794;-79
2022/03/12 02:15:01;;;;;;;12.87;5.30;;;;;;;-0.84;36.43;101431.31;4456534;32;32845;-80
2022/03/12 02:17:29;;;;;;;13.23;5.63;;;;;;;-0.87;36.17;101437.75;4468652;32;33291;-78
2022/03/12 02:19:56;;;;;;;13.47;6.13;;;;;;;-0.80;36.09;101441.81;4456117;32;31815;-80
2022/03/12 02:22:24;;;;;;;13.77;5.67;;;;;;;-0.93;36.14;101435.44;4469112;32;34594;-79
2022/03/12 02:24:57;;;;;;;12.77;5.70;;;;;;;-0.83;36.28;101427.66;4469967;32;35423;-79
2022/03/12 02:27:32;;;;;;;11.30;5.47;;;;;;;-0.85;36.50;101432.28;4468830;32;32402;-79
2022/03/12 02:30:04;;;;;;;10.37;5.27;;;;;;;-0.86;36.52;101430.53;4468616;32;33451;-79
2022/03/12 02:32:32;;;;;;;9.97;4.73;;;;;;;-0.80;36.41;101432.88;4469190;32;33581;-79
2022/03/12 02:35:02;;;;;;;10.40;5.20;;;;;;;-0.98;36.41;101437.53;4456058;32;33031;-79
2022/03/12 02:37:38;;;;;;;9.07;4.30;;;;;;;-1.13;35.97;101433.94;4455836;32;32763;-78
2022/03/12 02:40:09;;;;;;;13.50;5.17;;;;;;;-0.91;35.56;101440.72;4470097;32;34016;-79
2022/03/12 02:42:40;;;;;;;11.50;5.03;;;;;;;-0.95;35.60;101442.75;4468785;32;34815;-79
2022/03/12 02:45:09;;;;;;;10.83;4.83;;;;;;;-0.86;35.39;101431.41;4469737;32;34139;-80
2022/03/12 02:47:48;;;;;;;11.10;4.63;;;;;;;-1.00;35.02;101440.31;4468811;32;33949;-79
2022/03/12 02:50:21;;;;;;;12.00;4.20;;;;;;;-1.12;35.72;101440.19;4468972;32;33187;-78
2022/03/12 02:52:49;;;;;;;10.30;4.10;;;;;;;-1.38;35.15;101439.94;4468649;32;33744;-78
2022/03/12 02:55:23;;;;;;;10.00;4.60;;;;;;;-1.31;34.65;101435.06;4468609;32;35341;-79
2022/03/12 02:57:54;;;;;;;10.90;4.80;;;;;;;-1.42;35.71;101441.06;4455567;32;32311;-79
2022/03/12 03:00:27;;;;;;;9.83;4.40;;;;;;;-1.20;36.00;101443.34;4468650;32;34090;-80
2022/03/12 03:02:57;;;;;;;10.37;4.80;;;;;;;-1.05;36.00;101437.03;4468527;32;33853;-79
2022/03/12 03:05:38;;;;;;;10.40;4.23;;;;;;;-1.16;35.99;101439.50;4468636;32;35378;-79
2022/03/12 03:08:09;;;;;;;9.40;4.33;;;;;;;-1.13;35.97;101442.00;4456711;32;32224;-78
2022/03/12 03:10:48;;;;;;;11.60;5.13;;;;;;;-1.01;35.35;101451.19;4455598;32;32058;-78
2022/03/12 03:13:21;;;;;;;10.67;4.13;;;;;;;-0.83;35.29;101446.53;4442941;32;32169;-78
2022/03/12 03:15:55;;;;;;;13.63;4.77;;;;;;;-0.87;35.67;101444.97;4469459;32;35276;-79
2022/03/12 03:18:31;;;;;;;12.27;5.03;;;;;;;-1.14;36.06;101442.09;4469497;32;33903;-79
2022/03/12 03:21:03;;;;;;;12.00;3.57;;;;;;;-1.18;36.39;101446.81;4468368;32;33170;-79
2022/03/12 03:23:32;;;;;;;10.27;4.03;;;;;;;-1.01;35.79;101452.06;4468184;32;34681;-79
2022/03/12 03:26:05;;;;;;;9.80;3.80;;;;;;;-0.83;35.41;101455.47;4455464;32;34034;-78
2022/03/12 03:28:36;;;;;;;9.40;4.07;;;;;;;-0.89;34.95;101446.91;4455312;32;32414;-79
2022/03/12 03:31:08;;;;;;;8.00;3.40;;;;;;;-0.99;34.20;101443.87;4469690;32;33249;-78
2022/03/12 03:33:35;;;;;;;100.20;41.47;;;;;;;-0.88;34.83;101437.84;4468094;32;34583;-79
2022/03/12 03:36:04;;;;;;;54.13;26.23;;;;;;;-0.96;34.93;101443.72;4455216;32;33031;-79
2022/03/12 03:38:31;;;;;;;15.80;7.77;;;;;;;-0.85;34.88;101443.06;4454708;32;33948;-78
2022/03/12 03:40:59;;;;;;;12.40;6.33;;;;;;;-0.85;34.85;101451.16;4468267;32;33974;-79
2022/03/12 03:43:28;;;;;;;10.40;4.53;;;;;;;-0.76;34.68;101453.28;4457503;32;33947;-79
2022/03/12 03:45:56;;;;;;;9.80;3.93;;;;;;;-0.81;34.94;101460.78;4469970;32;35426;-79
2022/03/12 03:48:37;;;;;;;11.13;4.00;;;;;;;-0.79;34.37;101453.47;4457715;32;32559;-79
2022/03/12 03:51:07;;;;;;;8.90;4.00;;;;;;;-0.81;34.68;101456.25;4470147;32;33208;-78
2022/03/12 03:53:37;;;;;;;8.87;3.87;;;;;;;-0.48;34.00;101456.00;4470077;32;33666;-78
2022/03/12 03:56:05;;;;;;;10.30;3.73;;;;;;;-0.42;34.00;101450.22;4457549;32;34184;-79
2022/03/12 03:58:34;;;;;;;10.00;4.03;;;;;;;-0.81;34.68;101458.94;4469778;32;34473;-78
2022/03/12 04:01:14;;;;;;;8.27;3.33;;;;;;;-0.71;34.72;101462.81;4469738;32;34034;-79
2022/03/12 04:03:48;;;;;;;8.10;3.42;;;;;;;-0.63;35.01;101465.03;4470107;32;33705;-79
2022/03/12 04:06:18;;;;;;;8.17;4.03;;;;;;;-0.57;34.99;101469.19;4469881;32;32991;-78
2022/03/12 04:08:49;;;;;;;8.80;3.70;;;;;;;-0.67;34.86;101458.13;4471359;32;34753;-78
2022/03/12 04:11:20;;;;;;;8.57;3.67;;;;;;;-0.44;34.67;101454.84;4469863;32;33374;-78
2022/03/12 04:13:52;;;;;;;10.30;3.65;;;;;;;-0.56;34.70;101457.44;4457035;32;32418;-78
2022/03/12 04:16:22;;;;;;;7.97;3.75;;;;;;;-0.60;34.82;101447.78;4469921;32;35423;-78
2022/03/12 04:18:53;;;;;;;10.53;4.10;;;;;;;-0.56;34.78;101450.22;4471087;32;34233;-78
2022/03/12 04:21:24;;;;;;;9.30;3.80;;;;;;;-0.58;34.79;101454.81;4456739;32;32832;-79
2022/03/12 04:23:54;;;;;;;11.47;3.97;;;;;;;-0.70;34.90;101455.59;4469513;32;33782;-79
2022/03/12 04:26:27;;;;;;;8.37;3.50;;;;;;;-0.84;35.14;101453.75;4456914;32;34571;-80
2022/03/12 04:28:58;;;;;;;8.50;3.70;;;;;;;-0.92;35.23;101453.34;4456900;32;34734;-79
2022/03/12 04:31:31;;;;;;;7.27;3.57;;;;;;;-0.84;35.20;101458.28;4469905;32;33516;-79
2022/03/12 04:34:02;;;;;;;10.73;4.10;;;;;;;-0.60;35.12;101459.44;4471237;32;33783;-79
2022/03/12 04:36:33;;;;;;;8.57;3.87;;;;;;;-0.94;35.63;101449.00;4457016;32;34270;-73
2022/03/12 04:39:02;;;;;;;7.90;3.50;;;;;;;-0.73;35.44;101453.97;4457252;32;32401;-77
2022/03/12 04:41:35;;;;;;;8.23;3.40;;;;;;;-0.72;35.76;101454.84;4456996;32;33093;-77
2022/03/12 04:44:06;;;;;;;8.20;3.77;;;;;;;-0.82;35.56;101456.34;4470800;32;33600;-76
2022/03/12 04:46:37;;;;;;;7.47;3.77;;;;;;;-1.06;35.44;101462.25;4469785;32;35301;-77
2022/03/12 04:49:05;;;;;;;8.43;3.73;;;;;;;-0.10;63.81;101460.81;4469601;32;34619;-77
2022/03/12 04:51:33;;;;;;;8.97;3.57;;;;;;;-0.03;54.63;101463.03;4469428;32;33915;-76
2022/03/12 04:54:01;;;;;;;6.90;3.00;;;;;;;0.01;42.08;101463.69;4456475;32;33207;-77
2022/03/12 04:56:29;;;;;;;8.63;3.50;;;;;;;-0.13;37.85;101461.03;4469479;32;34309;-77
2022/03/12 04:58:56;;;;;;;11.23;3.73;;;;;;;-0.09;37.01;101470.66;4456631;32;32429;-77
2022/03/12 05:01:24;;;;;;;11.60;4.33;;;;;;;-0.21;36.02;101460.63;4469336;32;33241;-77
2022/03/12 05:03:53;;;;;;;7.23;3.33;;;;;;;-0.06;35.46;101470.47;4469392;32;33859;-78
2022/03/12 05:06:23;;;;;;;8.30;3.60;;;;;;;-0.53;36.02;101462.62;4456597;32;34314;-77
2022/03/12 05:08:51;;;;;;;9.40;4.07;;;;;;;-0.26;35.90;101473.53;4469476;32;33900;-78
2022/03/12 05:11:19;;;;;;;10.60;4.80;;;;;;;-0.46;36.06;101474.78;4470591;32;33275;-77
2022/03/12 05:13:47;;;;;;;12.43;5.07;;;;;;;-0.43;35.85;101475.47;4469380;32;33716;-76
2022/03/12 05:16:15;;;;;;;10.77;4.70;;;;;;;-0.57;36.19;101475.44;4469417;32;35381;-77
2022/03/12 05:18:43;;;;;;;8.10;4.40;;;;;;;-0.48;35.57;101468.63;4469312;32;33979;-78
2022/03/12 05:21:11;;;;;;;9.67;4.23;;;;;;;-0.47;35.53;101467.66;4469437;32;33203;-77
2022/03/12 05:23:39;;;;;;;9.98;4.15;;;;;;;-0.68;36.26;101469.88;4469398;32;34684;-77
2022/03/12 05:26:10;;;;;;;12.50;4.33;;;;;;;-0.52;36.06;101467.06;4456413;32;34374;-77
2022/03/12 05:28:38;;;;;;;13.00;5.30;;;;;;;-0.56;36.33;101476.31;4469334;32;33685;-77
2022/03/12 05:31:08;;;;;;;11.20;4.43;;;;;;;-0.45;36.50;101471.13;4470326;32;33366;-77
2022/03/12 05:33:36;;;;;;;11.47;4.33;;;;;;;-0.73;37.16;101471.97;4456629;32;33167;-77
2022/03/12 05:36:04;;;;;;;8.87;4.27;;;;;;;-0.58;36.85;101475.53;4470484;32;35114;-77
2022/03/12 05:38:39;;;;;;;9.33;4.70;;;;;;;-0.64;36.79;101475.91;4455913;32;32791;-77
2022/03/12 05:41:15;;;;;;;10.97;4.13;;;;;;;-0.93;37.39;101470.47;4457381;32;31793;-77
2022/03/12 05:43:51;;;;;;;12.43;4.13;;;;;;;-0.75;37.13;101472.06;4469275;32;33797;-77
2022/03/12 05:46:20;;;;;;;10.30;4.50;;;;;;;-0.76;37.37;101472.16;4468939;32;34404;-77
2022/03/12 05:48:49;;;;;;;9.73;4.53;;;;;;;-0.62;37.06;101480.25;4470276;32;34675;-77
2022/03/12 05:51:16;;;;;;;12.67;5.63;;;;;;;-0.52;37.14;101470.63;4468821;32;33931;-76
2022/03/12 05:53:45;;;;;;;11.90;4.67;;;;;;;-0.72;37.59;101471.00;4469481;32;34461;-76
2022/03/12 05:56:12;;;;;;;12.10;5.53;;;;;;;-0.59;37.47;101468.41;4470101;32;35546;-78
2022/03/12 05:58:40;;;;;;;14.67;6.07;;;;;;;-0.56;37.44;101468.22;4468331;32;33870;-77
2022/03/12 06:01:08;;;;;;;20.43;11.20;;;;;;;-0.47;37.54;101470.34;4467824;32;33113;-77
2022/03/12 06:03:37;;;;;;;22.07;9.97;;;;;;;-0.27;36.90;101471.81;4455401;32;32056;-77
2022/03/12 06:06:05;;;;;;;39.27;19.57;;;;;;;0.00;35.98;101464.69;4468810;32;34286;-78
2022/03/12 06:08:35;;;;;;;43.07;21.97;;;;;;;0.09;35.95;101464.06;4470194;32;33789;-78
2022/03/12 06:11:03;;;;;;;47.60;20.83;;;;;;;0.32;34.64;101459.88;4470366;32;33993;-77
2022/03/12 06:13:32;;;;;;;29.53;12.93;;;;;;;0.29;33.93;101458.25;4469000;32;34545;-78
2022/03/12 06:16:03;;;;;;;51.53;23.60;;;;;;;0.81;33.34;101476.38;4456197;32;33009;-78
2022/03/12 06:18:36;;;;;;;30.87;13.77;;;;;;;0.69;32.69;101469.09;4468947;32;33746;-77
2022/03/12 06:21:05;;;;;;;41.77;20.37;;;;;;;0.93;32.45;101463.87;4456181;32;31831;-77
2022/03/12 06:23:33;;;;;;;30.43;17.27;;;;;;;1.40;31.93;101460.59;4456073;32;33907;-78
2022/03/12 06:26:02;;;;;;;46.73;29.90;;;;;;;1.31;32.15;101466.66;4455954;32;33892;-78
2022/03/12 06:28:37;;;;;;;20.17;13.30;;;;;;;1.71;31.44;101461.16;4456173;32;33398;-78
2022/03/12 06:31:06;;;;;;;14.00;10.57;;;;;;;1.78;31.01;101466.03;4468890;32;31841;-77
2022/03/12 06:33:37;;;;;;;12.47;6.80;;;;;;;1.95;30.41;101470.25;4468909;32;34638;-77
2022/03/12 06:36:05;;;;;;;8.67;4.20;;;;;;;2.50;30.32;101464.37;4472486;32;34287;-78
2022/03/12 06:38:37;;;;;;;11.88;5.28;;;;;;;2.34;29.71;101463.75;4475152;32;33975;-77
2022/03/12 06:41:05;;;;;;;10.90;4.80;;;;;;;2.04;30.26;101460.56;4484951;32;33165;-76
2022/03/12 06:43:33;;;;;;;14.80;4.57;;;;;;;1.68;30.41;101485.75;4482722;32;33805;-77
2022/03/12 06:46:04;;;;;;;16.75;7.15;;;;;;;1.76;30.33;101484.22;4485736;32;35106;-78
2022/03/12 06:48:32;;;;;;;16.13;8.50;;;;;;;2.26;30.08;101486.00;4484353;32;33955;-78
2022/03/12 06:51:02;;;;;;;10.83;4.80;;;;;;;2.77;28.95;101482.22;4458791;32;31713;-80
2022/03/12 06:53:31;;;;;;;12.02;4.50;;;;;;;2.78;29.25;101483.97;4471662;32;33745;-79
2022/03/12 06:56:01;;;;;;;10.18;5.00;;;;;;;2.96;28.62;101491.59;4471114;32;34323;-78
2022/03/12 06:58:31;;;;;;;9.68;5.07;;;;;;;3.07;29.30;101498.03;4483608;32;33795;-76
2022/03/12 07:01:07;;;;;;;10.15;4.70;;;;;;;3.13;28.59;101492.16;4484266;32;33169;-76
2022/03/12 07:03:37;;;;;;;29.50;10.02;;;;;;;3.58;28.35;101493.16;4484390;32;33573;-76
2022/03/12 07:06:11;;;;;;;31.75;15.07;;;;;;;3.69;27.23;101495.03;4484765;32;34437;-76
2022/03/12 07:08:41;;;;;;;37.08;14.80;;;;;;;3.56;27.25;101500.53;4484055;32;34037;-76
2022/03/12 07:11:14;;;;;;;16.92;9.43;;;;;;;4.10;27.01;101502.56;4484897;32;33179;-77
2022/03/12 07:13:45;;;;;;;43.20;17.30;;;;;;;3.62;27.28;101505.50;4469532;32;33132;-76
2022/03/12 07:16:17;;;;;;;16.73;12.40;;;;;;;4.22;26.65;101505.19;4483098;32;35299;-76
2022/03/12 07:18:45;;;;;;;24.17;12.68;;;;;;;4.04;26.72;101498.50;4470741;32;33569;-77
2022/03/12 07:21:13;;;;;;;18.10;10.77;;;;;;;4.44;26.42;101507.03;4471038;32;33388;-76
2022/03/12 07:23:41;;;;;;;14.60;7.70;;;;;;;4.60;25.75;101496.59;4470240;32;32821;-80
2022/03/12 07:26:11;;;;;;;24.40;14.00;;;;;;;4.62;25.75;101500.06;4471456;32;33985;-76
2022/03/12 07:28:42;;;;;;;21.37;11.63;;;;;;;5.02;25.78;101496.75;4471264;32;34035;-76
2022/03/12 07:31:09;;;;;;;10.95;4.90;;;;;;;5.21;25.86;101498.75;4470444;32;33573;-77
2022/03/12 07:33:37;;;;;;;8.60;4.15;;;;;;;4.32;26.03;101494.44;4471213;32;34697;-75
2022/03/12 07:36:08;;;;;;;22.35;8.18;;;;;;;5.13;25.44;101499.44;4445275;32;33804;-77
2022/03/12 07:38:36;;;;;;;13.98;5.80;;;;;;;5.24;24.89;101490.31;4484369;32;33786;-77
2022/03/12 07:41:03;;;;;;;37.13;18.23;;;;;;;5.59;24.49;101496.34;4486012;32;33385;-77
2022/03/12 07:43:34;;;;;;;13.82;7.43;;;;;;;6.11;24.09;101486.34;4472964;32;33248;-78
2022/03/12 07:46:03;;;;;;;21.42;11.85;;;;;;;6.31;23.45;101487.28;4466377;32;34469;-78
2022/03/12 07:48:33;;;;;;;15.48;7.75;;;;;;;6.76;23.38;101481.37;4470102;32;34072;-77
2022/03/12 07:51:07;;;;;;;44.40;23.08;;;;;;;6.96;23.38;101472.22;4469659;32;31783;-77
2022/03/12 07:53:36;;;;;;;97.72;52.38;;;;;;;7.05;22.92;101471.37;4470206;32;33884;-79
2022/03/12 07:56:07;;;;;;;16.60;8.80;;;;;;;6.88;23.36;101470.19;4470004;32;34583;-77
2022/03/12 07:58:39;;;;;;;27.27;15.27;;;;;;;7.09;23.27;101471.94;4469788;32;33933;-77
2022/03/12 08:01:09;;;;;;;23.35;12.43;;;;;;;7.01;23.23;101480.84;4457045;32;32911;-76
2022/03/12 08:03:37;;;;;;;13.07;6.25;;;;;;;7.42;22.95;101470.63;4467785;32;33083;-78
2022/03/12 08:06:06;;;;;;;10.45;5.25;;;;;;;7.53;22.75;101473.22;4467633;32;34382;-78
2022/03/12 08:08:34;;;;;;;25.08;13.00;;;;;;;7.36;22.88;101474.78;4467641;32;34358;-78
2022/03/12 08:13:48;;;;;;;19.25;9.57;;;;;;;7.32;22.24;101465.16;4467552;32;32179;-78
2022/03/12 08:16:19;;;;;;;22.13;14.23;;;;;;;7.25;22.01;101474.94;4459323;32;34006;-80
2022/03/12 08:18:46;;;;;;;11.05;4.97;;;;;;;7.27;21.57;101468.34;4472592;32;33515;-78
2022/03/12 08:21:17;;;;;;;9.10;4.45;;;;;;;7.03;21.30;101477.97;4486604;32;33968;-79
2022/03/12 08:23:47;;;;;;;9.05;3.65;;;;;;;6.88;21.31;101470.19;4485462;32;34224;-78
2022/03/12 08:26:16;;;;;;;10.25;4.57;;;;;;;6.80;21.84;101482.81;4485547;32;35387;-78
2022/03/12 08:28:47;;;;;;;10.05;4.07;;;;;;;6.84;20.97;101471.47;4485180;32;34635;-78
2022/03/12 08:31:15;;;;;;;8.60;4.60;;;;;;;6.91;20.86;101474.50;4485388;32;34041;-78
2022/03/12 08:34:03;;;;;;;8.85;4.15;;;;;;;7.26;20.38;101469.34;4485427;32;34426;-79
2022/03/12 08:36:30;;;;;;;8.38;3.90;;;;;;;7.82;20.03;101470.41;4485281;32;33259;-79
2022/03/12 08:39:01;;;;;;;9.68;3.87;;;;;;;8.13;19.45;101466.44;4486590;32;34605;-79
2022/03/12 08:41:29;;;;;;;11.25;4.60;;;;;;;8.46;19.37;101462.25;4472194;32;31580;-79
2022/03/12 08:43:56;;;;;;;11.50;4.35;;;;;;;8.51;19.07;101468.13;4485309;32;33656;-80
2022/03/12 08:46:24;;;;;;;11.35;4.50;;;;;;;8.73;18.47;101460.53;4485278;32;35164;-80
2022/03/12 08:48:54;;;;;;;38.38;20.35;;;;;;;8.90;17.88;101460.56;4485358;32;34534;-78
2022/03/12 08:51:24;;;;;;;11.65;6.57;;;;;;;8.63;19.20;101457.84;4472789;32;33936;-79
2022/03/12 08:53:53;;;;;;;40.53;15.98;;;;;;;8.13;19.06;101460.94;4472298;32;32358;-79
2022/03/12 08:56:21;;;;;;;9.50;4.50;;;;;;;8.33;19.21;101469.97;4472346;32;34453;-78
2022/03/12 08:58:51;;;;;;;12.57;4.97;;;;;;;8.66;18.47;101464.88;4472292;32;34676;-79
2022/03/12 09:01:24;;;;;;;18.87;10.68;;;;;;;9.33;18.41;101458.03;4472775;32;31748;-79
2022/03/12 09:03:54;;;;;;;11.55;5.82;;;;;;;9.39;17.83;101462.88;4485304;32;33970;-79
2022/03/12 09:06:23;;;;;;;11.93;5.07;;;;;;;9.98;17.82;101458.53;4472202;32;32823;-79
2022/03/12 09:08:51;;;;;;;11.30;3.92;;;;;;;9.71;17.37;101460.41;4472262;32;34552;-79
2022/03/12 09:11:20;;;;;;;11.00;5.18;;;;;;;10.05;16.86;101452.22;4472739;32;33505;-79
2022/03/12 09:13:51;;;;;;;10.32;4.95;;;;;;;10.16;16.82;101460.19;4485356;32;33676;-79
2022/03/12 09:16:22;;;;;;;12.30;5.10;;;;;;;10.39;16.47;101460.50;4472565;32;33032;-80
2022/03/12 09:18:53;;;;;;;10.43;5.22;;;;;;;10.55;16.39;101452.31;4472530;32;33928;-79
2022/03/12 09:21:24;;;;;;;8.52;4.68;;;;;;;10.55;16.46;101445.97;4472551;32;33363;-80
2022/03/12 09:23:52;;;;;;;10.70;4.75;;;;;;;11.04;16.59;101454.34;4472160;32;32274;-79
2022/03/12 09:26:22;;;;;;;10.70;5.05;;;;;;;11.09;15.94;101444.53;4472138;32;33470;-81
2022/03/12 09:28:50;;;;;;;9.02;3.40;;;;;;;11.12;15.64;101446.09;4486288;32;33757;-81
2022/03/12 09:31:21;;;;;;;9.10;4.25;;;;;;;11.16;15.78;101440.09;4485418;32;34194;-81
2022/03/12 09:33:49;;;;;;;9.80;5.12;;;;;;;11.54;15.38;101444.06;4472265;32;33649;-80
2022/03/12 09:36:20;;;;;;;8.65;3.53;;;;;;;11.55;14.96;101440.28;4485064;32;34715;-81
2022/03/12 09:38:50;;;;;;;12.07;4.15;;;;;;;11.68;15.08;101444.41;4470884;32;33399;-83
2022/03/12 09:41:20;;;;;;;8.80;3.65;;;;;;;12.25;15.00;101447.91;4472772;32;33259;-81
2022/03/12 09:43:47;;;;;;;9.02;4.00;;;;;;;12.18;14.92;101445.00;4472322;32;33507;-81
2022/03/12 09:46:15;;;;;;;9.82;4.45;;;;;;;12.34;14.83;101441.34;4471960;32;33002;-82
2022/03/12 09:48:43;;;;;;;8.10;4.35;;;;;;;12.63;14.91;101435.19;4459251;32;32491;-82
2022/03/12 09:51:10;;;;;;;12.73;5.28;;;;;;;12.45;14.31;101431.81;4484877;32;33232;-82
2022/03/12 09:53:38;;;;;;;10.98;4.97;;;;;;;12.88;14.49;101429.53;4471893;32;32293;-82
2022/03/12 09:56:06;;;;;;;7.37;4.07;;;;;;;12.75;14.02;101439.25;4486059;32;34339;-82
2022/03/12 09:58:34;;;;;;;17.12;8.48;;;;;;;12.70;13.88;101425.16;4471901;32;34680;-83
2022/03/12 10:01:04;;;;;;;11.60;5.47;;;;;;;13.07;14.13;101420.78;4484562;32;33148;-82
2022/03/12 10:03:32;;;;;;;9.05;4.57;;;;;;;13.18;14.17;101417.63;4459078;32;32201;-83
2022/03/12 10:06:00;;;;;;;8.50;4.28;;;;;;;13.33;14.54;101425.97;4471857;32;35278;-83
2022/03/12 10:08:28;;;;;;;17.17;8.85;;;;;;;13.83;14.11;101414.28;4484394;32;34728;-82
2022/03/12 10:10:58;;;;;;;12.37;4.70;;;;;;;13.80;14.30;101417.41;4458878;32;31803;-83
2022/03/12 10:13:25;;;;;;;12.55;6.82;;;;;;;14.09;14.27;101411.94;4484700;32;34716;-82
2022/03/12 10:15:53;;;;;;;10.43;5.62;;;;;;;13.74;13.81;101412.63;4471757;32;32945;-82
2022/03/12 10:18:22;;;;;;;8.13;4.12;;;;;;;14.08;13.63;101415.72;4484736;32;34730;-83
2022/03/12 10:20:50;;;;;;;14.38;7.72;;;;;;;14.12;19.36;101410.69;4471815;32;32863;-80
2022/03/12 10:23:20;;;;;;;10.55;4.28;;;;;;;13.25;17.99;101423.25;4471870;32;34169;-81
2022/03/12 10:25:50;;;;;;;13.68;5.65;;;;;;;13.77;19.69;101413.13;4471743;32;34702;-82
2022/03/12 10:28:18;;;;;;;8.63;4.20;;;;;;;13.86;16.21;101405.63;4471280;32;34411;-80
2022/03/12 10:30:48;;;;;;;10.10;4.40;;;;;;;14.67;13.98;101409.31;4471543;32;32872;-81
2022/03/12 10:33:24;;;;;;;8.75;3.78;;;;;;;14.92;13.73;101404.31;4471697;32;33861;-81
2022/03/12 10:35:52;;;;;;;8.37;3.33;;;;;;;15.07;12.97;101394.88;4484590;32;35251;-81
2022/03/12 10:38:25;;;;;;;8.13;3.72;;;;;;;14.99;13.11;101402.44;4471766;32;34636;-82
2022/03/12 10:40:56;;;;;;;8.65;4.22;;;;;;;14.79;12.98;101400.34;4470403;32;34232;-82
2022/03/12 10:43:24;;;;;;;11.77;4.43;;;;;;;14.77;12.74;101402.44;4466663;32;32294;-78
2022/03/12 10:45:58;;;;;;;6.80;3.53;;;;;;;14.53;13.19;101407.44;4483582;32;35366;-82
2022/03/12 10:48:40;;;;;;;11.18;3.92;;;;;;;14.66;13.49;101393.78;4471921;32;33866;-82
2022/03/12 10:51:14;;;;;;;7.30;3.65;;;;;;;14.79;12.62;101394.81;4483852;32;33285;-82
2022/03/12 10:53:45;;;;;;;7.72;3.65;;;;;;;14.87;12.77;101390.22;4484359;32;33908;-82
2022/03/12 10:56:13;;;;;;;7.05;3.35;;;;;;;14.35;12.37;101386.56;4458409;32;32854;-82
2022/03/12 10:58:40;;;;;;;6.60;3.25;;;;;;;14.33;13.28;101385.03;4380940;32;2817457;-82
2022/03/12 11:01:11;;;;;;;11.02;6.82;;;;;;;14.39;12.96;101373.22;4463907;32;32905;-82
2022/03/12 11:03:39;;;;;;;10.20;4.25;;;;;;;14.78;12.70;101376.50;4471149;32;33403;-82
2022/03/12 11:06:07;;;;;;;6.55;3.47;;;;;;;14.93;12.92;101382.00;4470796;32;35304;-82
2022/03/12 11:08:38;;;;;;;8.32;3.80;;;;;;;14.68;12.71;101366.81;4484017;32;34284;-83
2022/03/12 11:11:12;;;;;;;10.25;7.00;;;;;;;14.90;12.31;101371.31;4471427;32;33176;-82
2022/03/12 11:13:47;;;;;;;8.98;5.15;;;;;;;14.25;12.97;101363.94;4471332;32;34041;-82
2022/03/12 11:16:27;;;;;;;6.40;3.03;;;;;;;14.26;13.04;101362.03;4471351;32;32978;-82
2022/03/12 11:18:58;;;;;;;9.13;3.20;;;;;;;14.54;12.85;101374.09;4484291;32;34142;-82
2022/03/12 11:21:27;;;;;;;10.18;3.67;;;;;;;14.69;12.38;101351.94;4471205;32;32563;-83
2022/03/12 11:23:59;;;;;;;10.45;4.65;;;;;;;14.77;12.42;101355.44;4484077;32;34034;-82
2022/03/12 11:26:28;;;;;;;10.80;5.00;;;;;;;14.60;12.31;101348.44;4471737;32;34110;-82
2022/03/12 11:28:59;;;;;;;12.30;5.32;;;;;;;14.43;12.72;101352.47;4471207;32;32273;-83
2022/03/12 11:31:50;;;;;;;10.30;3.17;;;;;;;14.83;12.63;101343.62;4471510;32;33194;-83
2022/03/12 11:34:32;;;;;;;8.10;4.05;;;;;;;14.57;12.53;101348.84;4458148;32;33205;-76
2022/03/12 11:37:06;;;;;;;6.80;2.83;;;;;;;13.99;12.37;101345.09;4485078;32;34432;-82
2022/03/12 11:39:43;;;;;;;7.53;3.65;;;;;;;13.96;12.30;101337.19;4484885;32;33918;-83